createdAt,value
2017-09-06T00:00:18.306Z,3.93
2017-09-06T00:02:46.087Z,4.13
2017-09-06T00:05:13.856Z,3.50
2017-09-06T00:07:41.603Z,3.73
2017-09-06T00:10:09.388Z,3.80
2017-09-06T00:12:37.157Z,3.30
2017-09-06T00:15:04.873Z,3.47
2017-09-06T00:17:32.701Z,3.00
2017-09-06T00:20:00.422Z,3.80
2017-09-06T00:22:28.199Z,2.97
2017-09-06T00:24:56.035Z,3.20
2017-09-06T00:27:23.816Z,4.10
2017-09-06T00:29:51.528Z,4.87
2017-09-06T00:32:19.423Z,4.87
2017-09-06T00:34:47.192Z,4.57
2017-09-06T00:37:15.007Z,4.93
2017-09-06T00:39:42.814Z,6.87
2017-09-06T00:42:10.550Z,4.30
2017-09-06T00:44:38.356Z,7.13
2017-09-06T00:47:06.211Z,4.73
2017-09-06T00:49:33.920Z,5.27
2017-09-06T00:52:01.651Z,8.30
2017-09-06T00:54:29.372Z,4.00
2017-09-06T00:56:57.369Z,4.93
2017-09-06T00:59:25.093Z,5.10
2017-09-06T01:01:52.871Z,4.90
2017-09-06T01:04:20.657Z,4.63
2017-09-06T01:06:48.472Z,5.10
2017-09-06T01:09:16.221Z,4.97
2017-09-06T01:11:43.941Z,6.30
2017-09-06T01:14:11.680Z,5.30
2017-09-06T01:16:39.583Z,4.63
2017-09-06T01:19:07.294Z,5.63
2017-09-06T01:21:35.062Z,5.03
2017-09-06T01:24:02.876Z,4.83
2017-09-06T01:26:30.648Z,4.50
2017-09-06T01:28:58.379Z,7.23
2017-09-06T01:31:26.166Z,5.20
2017-09-06T01:33:53.876Z,4.57
2017-09-06T01:36:21.648Z,4.47
2017-09-06T01:38:49.368Z,6.10
2017-09-06T01:41:17.076Z,4.30
2017-09-06T01:43:44.845Z,4.97
2017-09-06T01:46:12.721Z,7.03
2017-09-06T01:48:40.465Z,4.47
2017-09-06T01:51:08.193Z,5.90
2017-09-06T01:53:35.983Z,5.83
2017-09-06T01:56:03.709Z,8.00
2017-09-06T01:58:31.479Z,6.30
2017-09-06T02:00:59.197Z,6.93
2017-09-06T02:03:26.968Z,6.53
2017-09-06T02:05:54.704Z,5.93
2017-09-06T02:08:22.500Z,5.97
2017-09-06T02:10:50.264Z,6.33
2017-09-06T02:13:18.033Z,6.20
2017-09-06T02:15:45.852Z,6.20
2017-09-06T02:18:13.570Z,8.17
2017-09-06T02:20:41.339Z,6.83
2017-09-06T02:23:09.198Z,7.50
2017-09-06T02:25:36.900Z,7.80
2017-09-06T02:28:04.703Z,6.00
2017-09-06T02:30:32.525Z,6.23
2017-09-06T02:33:00.286Z,6.43
2017-09-06T02:35:28.057Z,6.23
2017-09-06T02:37:55.903Z,7.40
2017-09-06T02:40:23.611Z,5.97
2017-09-06T02:42:51.373Z,6.90
2017-09-06T02:45:19.179Z,6.83
2017-09-06T02:47:46.887Z,7.37
2017-09-06T02:50:14.655Z,9.13
2017-09-06T02:52:42.488Z,7.43
2017-09-06T02:55:10.257Z,6.93
2017-09-06T02:57:37.976Z,7.00
2017-09-06T03:00:05.828Z,10.33
2017-09-06T03:02:33.536Z,6.10
2017-09-06T03:05:01.260Z,8.67
2017-09-06T03:07:29.113Z,6.70
2017-09-06T03:09:56.907Z,8.97
2017-09-06T03:12:24.633Z,7.20
2017-09-06T03:14:52.362Z,8.00
2017-09-06T03:17:20.068Z,6.63
2017-09-06T03:19:47.832Z,6.17
2017-09-06T03:22:15.642Z,8.83
2017-09-06T03:24:43.363Z,9.07
2017-09-06T03:27:11.076Z,9.93
2017-09-06T03:29:38.933Z,8.63
2017-09-06T03:32:06.674Z,6.93
2017-09-06T03:34:34.379Z,7.73
2017-09-06T03:37:02.261Z,8.60
2017-09-06T03:39:30.031Z,6.67
2017-09-06T03:41:57.800Z,6.50
2017-09-06T03:44:25.566Z,6.40
2017-09-06T03:46:53.298Z,10.17
2017-09-06T03:49:21.073Z,7.40
2017-09-06T03:51:48.855Z,37.70
2017-09-06T03:54:16.581Z,23.37
2017-09-06T03:56:44.352Z,68.20
2017-09-06T03:59:12.225Z,97.23
2017-09-06T04:01:39.994Z,79.87
2017-09-06T04:04:07.771Z,83.80
2017-09-06T04:06:35.594Z,62.83
2017-09-06T04:09:03.327Z,43.40
2017-09-06T04:11:31.104Z,39.10
2017-09-06T04:13:58.928Z,31.00
2017-09-06T04:16:26.699Z,21.70
2017-09-06T04:18:54.416Z,19.90
2017-09-06T04:21:22.218Z,14.50
2017-09-06T04:23:49.958Z,12.17
2017-09-06T04:26:17.671Z,14.27
2017-09-06T04:28:45.408Z,10.93
2017-09-06T04:31:13.148Z,11.53
2017-09-06T04:33:40.915Z,12.87
2017-09-06T04:36:08.734Z,9.70
2017-09-06T04:38:36.511Z,10.47
2017-09-06T04:41:04.313Z,12.83
2017-09-06T04:43:32.111Z,12.50
2017-09-06T04:45:59.820Z,9.70
2017-09-06T04:48:27.549Z,10.23
2017-09-06T04:50:55.333Z,10.63
2017-09-06T04:53:23.059Z,10.03
2017-09-06T04:55:50.837Z,16.40
2017-09-06T04:58:18.576Z,17.20
2017-09-06T05:00:46.351Z,14.50
2017-09-06T05:03:14.150Z,11.17
2017-09-06T05:05:41.968Z,14.73
2017-09-06T05:08:09.703Z,8.73
2017-09-06T05:10:37.442Z,7.60
2017-09-06T05:13:06.589Z,10.23
2017-09-06T05:15:34.358Z,8.17
2017-09-06T05:18:02.433Z,7.83
2017-09-06T05:20:32.389Z,8.00
2017-09-06T05:23:00.161Z,8.53
2017-09-06T05:25:27.926Z,6.80
2017-09-06T05:27:56.221Z,7.90
2017-09-06T05:30:26.292Z,6.83
2017-09-06T05:32:54.165Z,7.40
2017-09-06T05:35:21.970Z,7.33
2017-09-06T05:37:49.821Z,8.83
2017-09-06T05:40:17.715Z,11.50
2017-09-06T05:42:45.444Z,12.20
2017-09-06T05:45:13.221Z,9.87
2017-09-06T05:47:40.997Z,10.63
2017-09-06T05:50:08.808Z,7.87
2017-09-06T05:52:36.522Z,9.10
2017-09-06T05:55:04.292Z,8.50
2017-09-06T05:57:32.068Z,9.70
2017-09-06T05:59:59.784Z,7.90
2017-09-06T06:02:27.639Z,6.60
2017-09-06T06:04:55.352Z,10.60
2017-09-06T06:07:23.120Z,6.50
2017-09-06T06:09:50.861Z,10.03
2017-09-06T06:12:18.651Z,8.70
2017-09-06T06:14:46.372Z,9.13
2017-09-06T06:17:14.111Z,11.87
2017-09-06T06:19:41.889Z,6.77
2017-09-06T06:22:09.632Z,5.47
2017-09-06T06:24:37.359Z,8.30
2017-09-06T06:27:05.074Z,6.10
2017-09-06T06:29:32.840Z,9.97
2017-09-06T06:32:00.632Z,6.13
2017-09-06T06:34:28.427Z,11.50
2017-09-06T06:36:56.219Z,10.03
2017-09-06T06:39:24.028Z,14.43
2017-09-06T06:41:51.753Z,8.67
2017-09-06T06:44:19.523Z,5.93
2017-09-06T06:46:47.295Z,13.30
2017-09-06T06:49:15.032Z,5.80
2017-09-06T06:51:42.842Z,12.40
2017-09-06T06:54:10.569Z,8.03
2017-09-06T06:56:38.281Z,6.57
2017-09-06T06:59:06.046Z,8.10
2017-09-06T07:01:33.856Z,6.47
2017-09-06T07:04:01.577Z,13.30
2017-09-06T07:06:29.342Z,12.47
2017-09-06T07:08:57.145Z,6.80
2017-09-06T07:11:24.855Z,6.60
2017-09-06T07:13:52.568Z,8.70
2017-09-06T07:16:20.370Z,12.07
2017-09-06T07:18:48.140Z,12.10
2017-09-06T07:21:15.867Z,11.50
2017-09-06T07:23:43.610Z,6.93
2017-09-06T07:26:11.328Z,9.50
2017-09-06T07:28:39.048Z,11.90
2017-09-06T07:31:06.779Z,13.47
2017-09-06T07:33:34.591Z,14.00
2017-09-06T07:36:02.324Z,9.47
2017-09-06T07:38:30.113Z,11.00
2017-09-06T07:40:57.846Z,10.53
2017-09-06T07:43:25.569Z,9.57
2017-09-06T07:45:53.294Z,8.97
2017-09-06T07:48:21.025Z,13.87
2017-09-06T07:50:48.738Z,9.03
2017-09-06T07:53:16.589Z,9.87
2017-09-06T07:55:44.308Z,7.20
2017-09-06T07:58:12.038Z,9.27
2017-09-06T08:00:39.854Z,8.90
2017-09-06T08:03:07.577Z,9.70
2017-09-06T08:05:35.373Z,9.97
2017-09-06T08:08:07.055Z,9.27
2017-09-06T08:10:34.773Z,10.03
2017-09-06T08:13:02.488Z,10.23
2017-09-06T08:15:30.368Z,9.13
2017-09-06T08:17:58.077Z,9.90
2017-09-06T08:20:25.822Z,11.23
2017-09-06T08:22:53.636Z,13.30
2017-09-06T08:25:21.363Z,9.43
2017-09-06T08:27:49.144Z,8.77
2017-09-06T08:30:16.915Z,12.83
2017-09-06T08:32:44.698Z,13.33
2017-09-06T08:35:12.530Z,14.90
2017-09-06T08:37:40.264Z,10.30
2017-09-06T08:40:07.999Z,10.87
2017-09-06T08:42:35.725Z,13.33
2017-09-06T08:45:03.480Z,11.33
2017-09-06T08:47:31.195Z,11.63
2017-09-06T08:49:58.972Z,11.63
2017-09-06T08:52:26.862Z,13.13
2017-09-06T08:54:54.608Z,13.90
2017-09-06T08:57:22.383Z,10.83
2017-09-06T08:59:50.131Z,12.77
2017-09-06T09:02:17.916Z,11.48
2017-09-06T09:04:45.709Z,10.70
2017-09-06T09:07:13.453Z,7.90
2017-09-06T09:09:41.176Z,8.30
2017-09-06T09:12:08.986Z,9.90
2017-09-06T09:14:36.787Z,9.70
2017-09-06T09:17:04.569Z,7.97
2017-09-06T09:19:32.383Z,13.60
2017-09-06T09:22:00.205Z,10.00
2017-09-06T09:24:28.366Z,9.30
2017-09-06T09:26:56.122Z,9.60
2017-09-06T09:29:23.849Z,8.80
2017-09-06T09:31:51.630Z,9.67
2017-09-06T09:34:19.357Z,12.73
2017-09-06T09:36:47.068Z,9.80
2017-09-06T09:39:15.550Z,9.97
2017-09-06T09:41:43.327Z,6.03
2017-09-06T09:44:11.115Z,11.73
2017-09-06T09:46:38.845Z,11.40
2017-09-06T09:49:06.571Z,9.90
2017-09-06T09:51:34.377Z,8.90
2017-09-06T09:54:02.961Z,9.63
2017-09-06T09:56:30.687Z,9.57
2017-09-06T09:58:58.429Z,12.70
2017-09-06T10:01:26.159Z,14.43
2017-09-06T10:03:53.874Z,9.80
2017-09-06T10:06:22.476Z,10.77
2017-09-06T10:08:50.287Z,9.40
2017-09-06T10:11:18.060Z,9.37
2017-09-06T10:13:45.860Z,18.33
2017-09-06T10:16:13.584Z,11.90
2017-09-06T10:18:41.359Z,12.37
2017-09-06T10:21:09.173Z,14.57
2017-09-06T10:23:36.907Z,9.17
2017-09-06T10:26:04.669Z,14.10
2017-09-06T10:28:32.427Z,14.57
2017-09-06T10:31:00.202Z,9.93
2017-09-06T10:33:27.980Z,11.00
2017-09-06T10:35:55.758Z,8.70
2017-09-06T10:38:23.559Z,10.97
2017-09-06T10:40:51.361Z,7.57
2017-09-06T10:43:19.083Z,10.60
2017-09-06T10:45:46.800Z,9.87
2017-09-06T10:48:14.569Z,7.60
2017-09-06T10:50:42.443Z,12.73
2017-09-06T10:53:10.160Z,9.20
2017-09-06T10:55:37.881Z,10.30
2017-09-06T10:58:05.602Z,12.00
2017-09-06T11:00:33.377Z,9.13
2017-09-06T11:03:01.083Z,8.37
2017-09-06T11:05:28.830Z,9.90
2017-09-06T11:07:56.613Z,9.67
2017-09-06T11:10:24.380Z,8.67
2017-09-06T11:12:52.160Z,13.60
2017-09-06T11:15:19.875Z,12.60
2017-09-06T11:17:47.612Z,13.30
2017-09-06T11:20:15.387Z,13.40
2017-09-06T11:22:43.203Z,16.83
2017-09-06T11:25:10.988Z,12.60
2017-09-06T11:27:38.798Z,13.87
2017-09-06T11:30:06.613Z,15.17
2017-09-06T11:32:34.356Z,12.30
2017-09-06T11:35:02.144Z,13.97
2017-09-06T11:37:29.867Z,15.90
2017-09-06T11:39:57.587Z,15.73
2017-09-06T11:42:25.316Z,11.30
2017-09-06T11:44:53.052Z,10.10
2017-09-06T11:47:20.844Z,11.07
2017-09-06T11:49:48.652Z,19.50
2017-09-06T11:52:16.390Z,16.30
2017-09-06T11:54:44.113Z,11.40
2017-09-06T11:57:11.860Z,12.40
2017-09-06T11:59:39.597Z,14.70
2017-09-06T12:02:07.398Z,13.80
2017-09-06T12:04:35.265Z,15.03
2017-09-06T12:07:02.981Z,13.20
2017-09-06T12:09:30.706Z,9.60
2017-09-06T12:11:58.521Z,10.53
2017-09-06T12:14:26.236Z,9.07
2017-09-06T12:16:54.016Z,10.97
2017-09-06T12:19:21.887Z,8.50
2017-09-06T12:21:49.692Z,9.40
2017-09-06T12:24:17.407Z,7.20
2017-09-06T12:26:45.205Z,7.87
2017-09-06T12:29:12.974Z,7.37
2017-09-06T12:31:40.739Z,6.93
2017-09-06T12:34:08.608Z,8.00
2017-09-06T12:36:36.337Z,8.80
2017-09-06T12:39:04.055Z,14.93
2017-09-06T12:41:31.784Z,6.80
2017-09-06T12:43:59.513Z,12.50
2017-09-06T12:46:27.233Z,8.80
2017-09-06T12:48:55.001Z,8.63
2017-09-06T12:51:22.707Z,8.40
2017-09-06T12:53:50.417Z,9.70
2017-09-06T12:56:18.203Z,11.13
2017-09-06T12:58:45.971Z,11.73
2017-09-06T13:01:13.745Z,8.53
2017-09-06T13:03:41.460Z,6.43
2017-09-06T13:06:09.275Z,9.30
2017-09-06T13:08:37.043Z,8.63
2017-09-06T13:11:04.775Z,11.93
2017-09-06T13:13:32.545Z,6.77
2017-09-06T13:16:00.320Z,12.27
2017-09-06T13:18:28.177Z,7.73
2017-09-06T13:20:55.950Z,16.70
2017-09-06T13:23:23.729Z,13.63
2017-09-06T13:25:51.511Z,6.13
2017-09-06T13:28:19.311Z,6.17
2017-09-06T13:30:47.908Z,8.80
2017-09-06T13:33:15.672Z,7.93
2017-09-06T13:35:43.398Z,9.30
2017-09-06T13:38:11.175Z,14.20
2017-09-06T13:40:39.053Z,7.23
2017-09-06T13:43:06.832Z,7.87
2017-09-06T13:45:34.561Z,6.37
2017-09-06T13:48:02.344Z,7.43
2017-09-06T13:50:30.140Z,9.07
2017-09-06T13:52:57.871Z,7.13
2017-09-06T13:55:25.608Z,8.57
2017-09-06T13:57:53.333Z,8.40
2017-09-06T14:00:21.064Z,9.80
2017-09-06T14:02:48.852Z,6.10
2017-09-06T14:05:16.593Z,8.00
2017-09-06T14:07:44.309Z,6.43
2017-09-06T14:10:12.107Z,8.10
2017-09-06T14:12:39.898Z,8.60
2017-09-06T14:15:07.693Z,10.40
2017-09-06T14:17:35.648Z,9.63
2017-09-06T14:20:03.421Z,8.57
2017-09-06T14:22:31.140Z,5.43
2017-09-06T14:24:58.971Z,5.80
2017-09-06T14:27:26.702Z,7.77
2017-09-06T14:29:54.441Z,5.10
2017-09-06T14:32:22.228Z,6.23
2017-09-06T14:34:49.999Z,5.70
2017-09-06T14:37:17.772Z,6.23
2017-09-06T14:39:45.540Z,7.30
2017-09-06T14:42:13.329Z,6.73
2017-09-06T14:44:41.044Z,7.63
2017-09-06T14:47:08.816Z,5.03
2017-09-06T14:49:36.523Z,5.23
2017-09-06T14:52:04.393Z,8.13
2017-09-06T14:54:32.108Z,8.50
2017-09-06T14:56:59.829Z,6.83
2017-09-06T14:59:27.551Z,4.87
2017-09-06T15:01:55.407Z,8.33
2017-09-06T15:04:23.193Z,4.03
2017-09-06T15:06:50.967Z,4.97
2017-09-06T15:09:18.698Z,5.13
2017-09-06T15:11:46.472Z,2.60
2017-09-06T15:14:14.196Z,2.97
2017-09-06T15:16:43.791Z,5.37
2017-09-06T15:19:11.565Z,3.13
2017-09-06T15:21:39.335Z,2.77
2017-09-06T15:24:07.047Z,3.00
2017-09-06T15:26:34.813Z,2.63
2017-09-06T15:29:02.596Z,5.80
2017-09-06T15:31:30.369Z,3.77
2017-09-06T15:33:58.157Z,3.60
2017-09-06T15:36:25.899Z,2.33
2017-09-06T15:38:53.612Z,2.50
2017-09-06T15:41:21.330Z,2.30
2017-09-06T15:43:49.164Z,2.70
2017-09-06T15:46:16.937Z,3.60
2017-09-06T15:48:44.731Z,3.70
2017-09-06T15:51:12.553Z,2.00
2017-09-06T15:53:40.267Z,1.57
2017-09-06T15:56:08.041Z,1.83
2017-09-06T15:58:35.820Z,2.63
2017-09-06T16:01:03.553Z,1.60
2017-09-06T16:03:31.389Z,1.80
2017-09-06T16:05:59.128Z,1.90
2017-09-06T16:08:26.869Z,1.90
2017-09-06T16:10:54.651Z,3.63
2017-09-06T16:13:22.546Z,2.60
2017-09-06T16:15:50.279Z,2.50
2017-09-06T16:18:17.992Z,1.80
2017-09-06T16:20:45.772Z,3.27
2017-09-06T16:23:13.486Z,2.43
2017-09-06T16:25:41.235Z,1.73
2017-09-06T16:28:09.012Z,3.97
2017-09-06T16:30:36.776Z,1.67
2017-09-06T16:33:04.489Z,1.60
2017-09-06T16:35:32.306Z,6.70
2017-09-06T16:38:00.082Z,2.57
2017-09-06T16:40:27.824Z,2.93
2017-09-06T16:42:55.620Z,3.13
2017-09-06T16:45:23.433Z,1.53
2017-09-06T16:47:51.205Z,1.77
2017-09-06T16:50:18.992Z,2.73
2017-09-06T16:52:46.770Z,3.83
2017-09-06T16:55:14.491Z,2.30
2017-09-06T16:57:42.200Z,4.10
2017-09-06T17:00:09.974Z,1.40
2017-09-06T17:02:37.797Z,3.40
2017-09-06T17:05:05.818Z,1.77
2017-09-06T17:07:33.698Z,3.03
2017-09-06T17:10:01.472Z,1.80
2017-09-06T17:12:31.566Z,2.40
2017-09-06T17:15:00.294Z,3.10
2017-09-06T17:17:29.785Z,1.63
2017-09-06T17:20:01.787Z,1.57
2017-09-06T17:22:30.210Z,3.20
2017-09-06T17:25:03.319Z,2.90
2017-09-06T17:27:34.476Z,1.87
2017-09-06T17:30:04.493Z,1.67
2017-09-06T17:32:32.378Z,1.80
2017-09-06T17:37:53.385Z,1.97
2017-09-06T17:40:21.171Z,3.07
2017-09-06T17:42:48.940Z,2.57
2017-09-06T17:45:16.791Z,2.80
2017-09-06T17:47:44.622Z,4.17
2017-09-06T17:50:19.532Z,1.70
2017-09-06T17:52:56.045Z,2.50
2017-09-06T17:55:23.956Z,2.47
2017-09-06T17:57:51.901Z,2.60
2017-09-06T18:00:19.733Z,1.73
2017-09-06T18:02:48.115Z,8.73
2017-09-06T18:05:16.120Z,2.47
2017-09-06T18:07:43.978Z,1.70
2017-09-06T18:10:11.786Z,2.20
2017-09-06T18:12:39.625Z,2.63
2017-09-06T18:15:07.505Z,1.60
2017-09-06T18:17:35.440Z,3.00
2017-09-06T18:20:03.252Z,2.77
2017-09-06T18:22:31.402Z,2.67
2017-09-06T18:24:59.269Z,1.63
2017-09-06T18:27:27.100Z,2.90
2017-09-06T18:29:54.919Z,1.90
2017-09-06T18:32:22.782Z,2.37
2017-09-06T18:34:50.556Z,2.33
2017-09-06T18:37:18.301Z,1.80
2017-09-06T18:39:46.113Z,2.63
2017-09-06T18:42:13.837Z,2.57
2017-09-06T18:44:41.555Z,2.57
2017-09-06T18:47:09.371Z,2.60
2017-09-06T18:49:37.102Z,2.80
2017-09-06T18:52:04.835Z,2.40
2017-09-06T18:54:32.634Z,2.73
2017-09-06T18:57:00.450Z,2.67
2017-09-06T18:59:28.234Z,1.97
2017-09-06T19:01:55.979Z,2.27
2017-09-06T19:04:23.760Z,2.73
2017-09-06T19:06:51.507Z,2.60
2017-09-06T19:09:19.300Z,2.70
2017-09-06T19:11:47.125Z,3.27
2017-09-06T19:14:14.862Z,2.07
2017-09-06T19:16:43.890Z,2.87
2017-09-06T19:19:11.891Z,4.40
2017-09-06T19:21:40.704Z,3.00
2017-09-06T19:24:08.486Z,1.53
2017-09-06T19:26:36.447Z,2.23
2017-09-06T19:29:04.234Z,2.80
2017-09-06T19:31:32.096Z,3.20
2017-09-06T19:33:59.963Z,2.43
2017-09-06T19:36:27.836Z,5.40
2017-09-06T19:38:55.682Z,4.10
2017-09-06T19:41:23.547Z,2.13
2017-09-06T19:43:51.293Z,2.30
2017-09-06T19:46:19.215Z,1.80
2017-09-06T19:48:46.946Z,2.67
2017-09-06T19:51:14.706Z,6.53
2017-09-06T19:53:42.466Z,4.40
2017-09-06T19:56:10.291Z,3.43
2017-09-06T19:58:38.105Z,2.00
2017-09-06T20:01:05.912Z,2.70
2017-09-06T20:03:33.649Z,4.00
2017-09-06T20:06:01.448Z,2.40
2017-09-06T20:08:29.308Z,4.83
2017-09-06T20:10:57.072Z,2.67
2017-09-06T20:13:24.867Z,2.30
2017-09-06T20:15:52.598Z,4.77
2017-09-06T20:18:20.379Z,2.23
2017-09-06T20:20:48.120Z,8.80
2017-09-06T20:23:15.834Z,4.10
2017-09-06T20:25:43.800Z,2.00
2017-09-06T20:28:11.564Z,2.33
2017-09-06T20:30:39.298Z,2.40
2017-09-06T20:33:07.386Z,2.70
2017-09-06T20:35:35.103Z,4.10
2017-09-06T20:38:02.891Z,1.83
2017-09-06T20:40:30.611Z,2.83
2017-09-06T20:42:58.375Z,2.93
2017-09-06T20:45:28.289Z,3.37
2017-09-06T20:47:57.606Z,2.30
2017-09-06T20:50:25.961Z,3.10
2017-09-06T20:52:53.746Z,3.43
2017-09-06T20:55:21.463Z,3.80
2017-09-06T20:57:49.229Z,4.53
2017-09-06T21:00:16.943Z,2.57
2017-09-06T21:02:44.737Z,2.53
2017-09-06T21:05:12.457Z,2.87
2017-09-06T21:07:40.244Z,2.33
2017-09-06T21:10:08.012Z,1.97
2017-09-06T21:12:35.730Z,2.30
2017-09-06T21:15:03.513Z,6.77
2017-09-06T21:17:31.332Z,2.90
2017-09-06T21:19:59.116Z,1.73
2017-09-06T21:22:26.866Z,3.10
2017-09-06T21:24:54.618Z,2.20
2017-09-06T21:27:22.447Z,2.47
2017-09-06T21:29:50.253Z,3.60
2017-09-06T21:32:18.033Z,2.63
2017-09-06T21:34:45.771Z,2.20
2017-09-06T21:37:13.484Z,4.23
2017-09-06T21:39:41.260Z,4.83
2017-09-06T21:42:09.128Z,6.03
2017-09-06T21:44:36.850Z,2.47
2017-09-06T21:47:04.620Z,1.77
2017-09-06T21:49:32.378Z,2.87
2017-09-06T21:52:00.152Z,3.03
2017-09-06T21:54:27.915Z,3.60
2017-09-06T21:56:55.709Z,3.50
2017-09-06T21:59:23.490Z,5.57
2017-09-06T22:01:51.216Z,5.63
2017-09-06T22:04:19.067Z,2.20
2017-09-06T22:06:46.840Z,2.50
2017-09-06T22:09:14.638Z,1.73
2017-09-06T22:11:42.473Z,2.27
2017-09-06T22:14:10.252Z,3.53
2017-09-06T22:16:38.052Z,10.33
2017-09-06T22:19:05.930Z,3.40
2017-09-06T22:21:33.650Z,2.90
2017-09-06T22:24:01.369Z,2.10
2017-09-06T22:26:29.145Z,2.10
2017-09-06T22:28:56.873Z,2.17
2017-09-06T22:31:24.661Z,3.57
2017-09-06T22:33:52.547Z,2.27
2017-09-06T22:36:53.252Z,3.80
2017-09-06T22:39:21.115Z,5.13
2017-09-06T22:41:48.838Z,3.67
2017-09-06T22:44:16.567Z,3.10
2017-09-06T22:46:44.534Z,2.57
2017-09-06T22:49:12.311Z,2.40
2017-09-06T22:51:40.116Z,3.23
2017-09-06T22:54:08.006Z,2.50
2017-09-06T22:56:35.726Z,2.40
2017-09-06T22:59:03.494Z,2.47
2017-09-06T23:01:31.351Z,3.17
2017-09-06T23:03:59.159Z,2.70
2017-09-06T23:06:26.883Z,3.73
2017-09-06T23:08:54.688Z,3.60
2017-09-06T23:11:23.183Z,1.80
2017-09-06T23:13:50.947Z,2.13
2017-09-06T23:16:18.678Z,4.37
2017-09-06T23:18:46.383Z,2.10
2017-09-06T23:21:14.166Z,2.27
2017-09-06T23:23:41.968Z,3.60
2017-09-06T23:26:09.690Z,1.60
2017-09-06T23:28:37.404Z,2.13
2017-09-06T23:31:05.215Z,2.70
2017-09-06T23:33:32.934Z,4.57
2017-09-06T23:36:00.712Z,2.23
2017-09-06T23:38:28.423Z,3.17
2017-09-06T23:40:56.144Z,3.87
2017-09-06T23:43:23.862Z,2.07
2017-09-06T23:45:51.680Z,2.67
2017-09-06T23:48:19.460Z,3.00
2017-09-06T23:50:47.178Z,6.90
2017-09-06T23:53:14.892Z,2.20
2017-09-06T23:55:42.668Z,3.20
2017-09-06T23:58:10.391Z,2.97
